Αρχική σελίδα
METAR-TAF:

METAR-TAF

Αεροδρόμια :

Φουντσάλ, Μαδέρα, Πορτογαλία

γεωγραφικό πλάτος: 32-41-52N, γεωγραφικό μήκος: 016-46-28W, υψόμετρο: 59 μ

Παρών καιρός

Η αναφορά έγινε 22 λεπτά πριν, στις 12:30 UTC
Άνεμος 10 kt από Β, μεταβλητός μεταξύ και Β/BA
Θερμοκρασία 21°C
Υγρασία 73%
Πίεση 1019 hPa
Ορατότητα 10 χλμ και άνω
Λίγα νέφη σε ύψος 1300 πόδια
Αρκετά νέφη σε ύψος 3000 πόδια

METAR: LPMA 201230Z 36010KT 310V030 9999 FEW013 BKN030 21/16 Q1019

Χρόνος: 13:52 (12:52 UTC)

Πρόγνωση Καιρού

Η αναφορά έγινε 1 ώρα και 52 λεπτά πριν, στις 11:00 UTC
Η πρόγνωση ισχύει από τις 20 στις 12 UTC έως τις 21 στις 12 UTC
Άνεμος 10 kt από Β
Ορατότητα 10 χλμ και άνω
Διάσπαρτα νέφη σε ύψος 1500 πόδια
Διάσπαρτα νέφη σε ύψος 3000 πόδια
Προσωρινά
από 20 στις 21 UTC έως τις 21 στις 12 UTC
Αρκετά νέφη σε ύψος 1500 πόδια

TAF: LPMA 201100Z 2012/2112 01010KT 9999 SCT015 SCT030 TEMPO 2021/2112 BKN015

Μετεωρολογικές αναφορές και προγνώσεις για περισσότερα από 4000 αεροδρόμια (δελτία METAR και TAF).

Οι διαθέσιμοι σταθμοί απεικονίζονται στο χάρτη με κίτρινες και κόκκινες κουκκίδες.

Μετακινήστε το ποντίκι πάνω από τις κουκκίδες για να δείτε το όνομα του σταθμού.

Στη συνέχεια, κάντε κλικ για να δείτε τις μετεωρολογικές αναφορές και τις προγνώσεις καιρού.

Για να αλλάξετε το χάρτη: κάντε κλικ στα πράσινα κουμπιά με τον μαύρο σταυρό για να ζουμάρετε, στο πράσινο κουμπί με την παύλα για να αφαιρέσετε το ζουμ ή στα πράσινα βέλη για να αντιπαραβάλλετε χάρτες.


METAR-TAF: